createdAt,value
2022-09-17T00:01:22.528Z,90.90
2022-09-17T00:03:52.421Z,90.90
2022-09-17T00:06:19.453Z,91.00
2022-09-17T00:08:46.328Z,90.90
2022-09-17T00:11:22.543Z,90.90
2022-09-17T00:13:50.957Z,90.30
2022-09-17T00:16:29.113Z,90.10
2022-09-17T00:18:56.154Z,90.00
2022-09-17T00:21:23.898Z,90.40
2022-09-17T00:24:00.695Z,90.70
2022-09-17T00:26:28.644Z,90.00
2022-09-17T00:28:56.446Z,90.10
2022-09-17T00:31:23.961Z,90.30
2022-09-17T00:33:51.679Z,90.30
2022-09-17T00:36:20.494Z,90.20
2022-09-17T00:38:51.971Z,90.20
2022-09-17T00:41:19.971Z,90.40
2022-09-17T00:43:50.826Z,89.90
2022-09-17T00:46:37.268Z,89.30
2022-09-17T00:49:16.726Z,89.30
2022-09-17T00:51:57.081Z,89.00
2022-09-17T00:54:28.840Z,89.30
2022-09-17T00:56:58.596Z,89.00
2022-09-17T00:59:26.574Z,88.80
2022-09-17T01:01:53.517Z,88.20
2022-09-17T01:04:23.636Z,88.00
2022-09-17T01:06:53.071Z,87.60
2022-09-17T01:09:33.044Z,87.30
2022-09-17T01:12:17.683Z,87.50
2022-09-17T01:15:01.990Z,87.00
2022-09-17T01:17:41.618Z,87.00
2022-09-17T01:20:52.971Z,86.40
2022-09-17T01:23:54.151Z,86.30
2022-09-17T01:26:42.811Z,86.40
2022-09-17T01:29:20.436Z,86.00
2022-09-17T01:32:13.469Z,85.90
2022-09-17T01:35:01.369Z,86.00
2022-09-17T01:37:49.103Z,86.00
2022-09-17T01:40:24.952Z,86.10
2022-09-17T01:43:10.471Z,85.60
2022-09-17T01:45:39.605Z,85.60
2022-09-17T01:48:12.824Z,85.90
2022-09-17T01:50:51.955Z,85.90
2022-09-17T01:53:25.415Z,86.00
2022-09-17T01:55:55.975Z,86.00
2022-09-17T01:58:26.829Z,86.00
2022-09-17T02:01:01.618Z,85.80
2022-09-17T02:03:33.852Z,86.20
2022-09-17T02:06:32.615Z,86.30
2022-09-17T02:09:28.327Z,86.70
2022-09-17T02:11:59.908Z,87.30
2022-09-17T02:14:45.335Z,88.50
2022-09-17T02:17:27.116Z,90.20
2022-09-17T02:19:55.657Z,91.00
2022-09-17T02:22:41.872Z,91.80
2022-09-17T02:25:28.639Z,92.20
2022-09-17T02:28:09.585Z,92.20
2022-09-17T02:30:42.328Z,92.30
2022-09-17T02:33:13.274Z,92.40
2022-09-17T02:35:40.235Z,92.50
2022-09-17T02:38:09.755Z,92.90
2022-09-17T02:40:46.506Z,93.00
2022-09-17T02:43:43.314Z,93.10
2022-09-17T02:46:20.353Z,93.30
2022-09-17T02:49:28.002Z,93.90
2022-09-17T02:52:23.072Z,94.20
2022-09-17T02:55:08.068Z,94.60
2022-09-17T02:57:42.504Z,95.10
2022-09-17T03:00:23.404Z,95.40
2022-09-17T03:03:10.785Z,95.90
2022-09-17T03:05:39.276Z,96.70
2022-09-17T03:08:09.681Z,96.40
2022-09-17T03:10:36.578Z,96.90
2022-09-17T03:13:04.094Z,96.70
2022-09-17T03:15:31.017Z,95.90
2022-09-17T03:17:57.822Z,95.00
2022-09-17T03:20:27.170Z,94.20
2022-09-17T03:22:53.943Z,94.20
2022-09-17T03:25:20.783Z,93.50
2022-09-17T03:27:48.359Z,93.20
2022-09-17T03:30:15.341Z,93.00
2022-09-17T03:32:42.158Z,92.90
2022-09-17T03:35:11.576Z,92.40
2022-09-17T03:37:38.465Z,92.10
2022-09-17T03:40:08.610Z,91.60
2022-09-17T03:42:37.784Z,91.10
2022-09-17T03:45:07.877Z,91.00
2022-09-17T03:47:34.655Z,90.50
2022-09-17T03:50:01.657Z,90.00
2022-09-17T03:52:28.349Z,89.90
2022-09-17T03:54:55.082Z,89.80
2022-09-17T03:57:22.827Z,89.80
2022-09-17T03:59:49.762Z,90.10
2022-09-17T04:02:16.634Z,90.60
2022-09-17T04:04:45.771Z,90.90
2022-09-17T04:07:12.594Z,90.70
2022-09-17T04:09:39.320Z,90.50
2022-09-17T04:12:08.583Z,90.90
2022-09-17T04:14:35.392Z,90.80
2022-09-17T04:17:02.209Z,90.60
2022-09-17T04:19:29.040Z,90.20
2022-09-17T04:21:55.788Z,89.80
2022-09-17T04:24:24.811Z,89.80
2022-09-17T04:26:51.673Z,89.80
2022-09-17T04:29:18.446Z,88.20
2022-09-17T04:31:47.481Z,88.00
2022-09-17T04:34:16.617Z,87.50
2022-09-17T04:36:43.318Z,87.00
2022-09-17T04:39:10.091Z,86.70
2022-09-17T04:41:36.843Z,86.40
2022-09-17T04:44:03.951Z,86.10
2022-09-17T04:46:31.014Z,85.70
2022-09-17T04:48:57.919Z,85.20
2022-09-17T04:51:24.831Z,85.00
2022-09-17T04:53:51.623Z,84.80
2022-09-17T04:56:18.510Z,85.30
2022-09-17T04:58:45.351Z,84.90
2022-09-17T05:01:13.873Z,84.10
2022-09-17T05:03:40.795Z,84.10
2022-09-17T05:06:07.521Z,84.10
2022-09-17T05:08:34.280Z,83.70
2022-09-17T05:11:03.468Z,83.70
2022-09-17T05:13:30.193Z,83.50
2022-09-17T05:15:59.453Z,84.00
2022-09-17T05:18:26.642Z,83.60
2022-09-17T05:20:56.344Z,83.70
2022-09-17T05:23:25.507Z,83.30
2022-09-17T05:25:53.008Z,83.40
2022-09-17T05:28:19.743Z,83.60
2022-09-17T05:30:46.642Z,83.60
2022-09-17T05:33:13.390Z,83.90
2022-09-17T05:35:44.099Z,84.00
2022-09-17T05:38:11.058Z,83.20
2022-09-17T05:40:38.562Z,83.10
2022-09-17T05:43:06.859Z,83.50
2022-09-17T05:45:35.164Z,82.50
2022-09-17T05:48:03.253Z,82.10
2022-09-17T05:50:30.583Z,81.40
2022-09-17T05:53:07.649Z,81.70
2022-09-17T05:55:35.247Z,80.90
2022-09-17T05:58:11.123Z,80.50
2022-09-17T06:00:41.042Z,80.40
2022-09-17T06:03:11.071Z,80.90
2022-09-17T06:05:37.955Z,80.90
2022-09-17T06:08:05.722Z,80.80
2022-09-17T06:10:35.658Z,81.30
2022-09-17T06:13:02.998Z,81.30
2022-09-17T06:15:29.816Z,80.90
2022-09-17T06:17:56.841Z,81.00
2022-09-17T06:20:26.008Z,80.80
2022-09-17T06:22:59.242Z,80.20
2022-09-17T06:25:31.880Z,80.30
2022-09-17T06:27:58.620Z,79.70
2022-09-17T06:30:27.483Z,79.20
2022-09-17T06:33:00.224Z,79.00
2022-09-17T06:35:26.930Z,78.40
2022-09-17T06:37:53.665Z,77.90
2022-09-17T06:40:25.340Z,77.90
2022-09-17T06:42:59.202Z,78.00
2022-09-17T06:45:27.127Z,77.30
2022-09-17T06:47:54.018Z,77.30
2022-09-17T06:50:23.424Z,76.00
2022-09-17T06:52:54.411Z,76.20
2022-09-17T06:55:21.552Z,75.70
2022-09-17T06:57:50.473Z,75.60
2022-09-17T07:00:17.347Z,75.60
2022-09-17T07:02:56.286Z,74.40
2022-09-17T07:05:23.643Z,74.60
2022-09-17T07:07:50.856Z,73.90
2022-09-17T07:10:17.814Z,73.20
2022-09-17T07:12:49.658Z,72.90
2022-09-17T07:15:17.197Z,72.90
2022-09-17T07:17:44.551Z,71.70
2022-09-17T07:20:12.164Z,71.80
2022-09-17T07:22:44.075Z,71.70
2022-09-17T07:25:11.560Z,71.00
2022-09-17T07:27:38.647Z,71.60
2022-09-17T07:30:08.780Z,71.80
2022-09-17T07:32:35.548Z,70.80
2022-09-17T07:35:02.434Z,68.80
2022-09-17T07:37:30.051Z,68.30
2022-09-17T07:39:56.946Z,67.80
2022-09-17T07:42:23.916Z,67.20
2022-09-17T07:44:50.669Z,66.60
2022-09-17T07:47:17.505Z,65.30
2022-09-17T07:49:46.940Z,65.80
2022-09-17T07:52:13.851Z,64.70
2022-09-17T07:54:40.715Z,65.30
2022-09-17T07:57:07.633Z,64.50
2022-09-17T07:59:34.517Z,64.10
2022-09-17T08:02:01.400Z,64.00
2022-09-17T08:04:28.262Z,65.20
2022-09-17T08:06:55.079Z,64.40
2022-09-17T08:09:22.601Z,63.70
2022-09-17T08:11:56.064Z,63.10
2022-09-17T08:14:28.483Z,64.00
2022-09-17T08:16:56.557Z,63.30
2022-09-17T08:19:23.338Z,62.90
2022-09-17T08:21:52.524Z,62.40
2022-09-17T08:24:19.447Z,61.80
2022-09-17T08:26:46.146Z,61.70
2022-09-17T08:29:12.935Z,60.60
2022-09-17T08:31:39.886Z,61.10
2022-09-17T08:34:10.601Z,61.50
2022-09-17T08:36:37.735Z,62.10
2022-09-17T08:39:04.568Z,61.60
2022-09-17T08:41:40.487Z,60.10
2022-09-17T08:44:32.597Z,58.90
2022-09-17T08:47:28.251Z,58.80
2022-09-17T08:50:01.233Z,58.40
2022-09-17T08:52:49.961Z,58.50
2022-09-17T08:55:35.155Z,58.40
2022-09-17T08:58:12.541Z,57.00
2022-09-17T09:00:56.046Z,55.70
2022-09-17T09:03:59.669Z,55.70
2022-09-17T09:07:03.768Z,55.40
2022-09-17T09:09:46.062Z,55.60
2022-09-17T09:12:29.132Z,56.60
2022-09-17T09:15:01.204Z,56.40
2022-09-17T09:17:44.152Z,56.00
2022-09-17T09:20:41.559Z,54.50
2022-09-17T09:23:18.307Z,53.20
2022-09-17T09:26:16.873Z,52.20
2022-09-17T09:29:13.296Z,51.70
2022-09-17T09:32:16.229Z,50.20
2022-09-17T09:34:47.998Z,49.80
2022-09-17T09:37:24.756Z,49.90
2022-09-17T09:39:55.103Z,49.40
2022-09-17T09:42:32.957Z,48.60
2022-09-17T09:45:34.438Z,47.60
2022-09-17T09:48:28.082Z,47.40
2022-09-17T09:51:18.052Z,47.00
2022-09-17T09:54:19.507Z,48.30
2022-09-17T09:56:51.442Z,50.50
2022-09-17T09:59:21.643Z,50.10
2022-09-17T10:01:48.863Z,50.70
2022-09-17T10:04:27.425Z,51.30
2022-09-17T10:07:02.911Z,50.40
2022-09-17T10:09:32.619Z,50.40
2022-09-17T10:12:09.972Z,48.00
2022-09-17T10:14:41.632Z,48.00
2022-09-17T10:17:21.654Z,46.30
2022-09-17T10:20:07.680Z,45.60
2022-09-17T10:22:39.688Z,46.30
2022-09-17T10:25:22.298Z,45.40
2022-09-17T10:27:50.004Z,45.70
2022-09-17T10:30:21.007Z,46.00
2022-09-17T10:33:17.760Z,44.20
2022-09-17T10:36:13.577Z,42.10
2022-09-17T10:38:44.472Z,42.60
2022-09-17T10:41:21.628Z,46.20
2022-09-17T10:43:49.646Z,51.10
2022-09-17T10:46:25.346Z,52.60
2022-09-17T10:49:08.655Z,52.60
2022-09-17T10:51:35.701Z,50.60
2022-09-17T10:54:44.853Z,48.60
2022-09-17T10:57:17.442Z,48.40
2022-09-17T11:00:07.601Z,47.80
2022-09-17T11:03:14.923Z,46.60
2022-09-17T11:06:00.412Z,45.80
2022-09-17T11:08:51.840Z,47.10
2022-09-17T11:11:46.881Z,46.30
2022-09-17T11:14:53.612Z,44.30
2022-09-17T11:17:29.546Z,42.50
2022-09-17T11:20:21.338Z,41.70
2022-09-17T11:23:26.446Z,40.90
2022-09-17T11:26:17.467Z,40.10
2022-09-17T11:29:05.596Z,40.10
2022-09-17T11:31:57.358Z,39.40
2022-09-17T11:34:35.049Z,38.20
2022-09-17T11:37:22.757Z,39.00
2022-09-17T11:39:57.366Z,39.80
2022-09-17T11:42:59.184Z,39.50
2022-09-17T11:45:34.315Z,39.10
2022-09-17T11:48:09.487Z,40.10
2022-09-17T11:50:44.409Z,38.90
2022-09-17T11:53:20.411Z,38.90
2022-09-17T11:55:59.979Z,38.60
2022-09-17T11:58:32.677Z,37.60
2022-09-17T12:01:07.043Z,37.20
2022-09-17T12:03:46.434Z,37.20
2022-09-17T12:06:23.082Z,37.00
2022-09-17T12:09:06.250Z,36.70
2022-09-17T12:11:50.913Z,35.80
2022-09-17T12:14:31.487Z,35.00
2022-09-17T12:17:00.884Z,34.90
2022-09-17T12:19:33.625Z,33.90
2022-09-17T12:22:02.136Z,35.00
2022-09-17T12:24:31.223Z,36.10
2022-09-17T12:27:07.261Z,36.80
2022-09-17T12:29:50.241Z,34.20
2022-09-17T12:32:32.169Z,34.60
2022-09-17T12:35:23.496Z,32.50
2022-09-17T12:38:11.839Z,32.60
2022-09-17T12:41:04.536Z,32.70
2022-09-17T12:43:39.883Z,33.20
2022-09-17T12:46:34.359Z,31.80
2022-09-17T12:49:19.755Z,23.90
2022-09-17T12:52:09.765Z,16.00
2022-09-17T12:54:51.672Z,11.40
2022-09-17T12:57:18.336Z,11.00
2022-09-17T13:00:01.727Z,17.60
2022-09-17T13:02:40.219Z,22.70
2022-09-17T13:05:12.987Z,27.10
2022-09-17T13:07:53.761Z,30.00
2022-09-17T13:11:06.303Z,31.10
2022-09-17T13:13:52.785Z,31.70
2022-09-17T13:16:44.130Z,28.90
2022-09-17T13:19:24.914Z,18.50
2022-09-17T13:22:07.236Z,7.70
2022-09-17T13:24:40.398Z,1.60
2022-09-17T13:27:22.848Z,1.00
2022-09-17T13:29:55.486Z,1.00
2022-09-17T13:32:38.815Z,1.00
2022-09-17T13:35:11.357Z,1.00
2022-09-17T13:37:54.789Z,1.00
2022-09-17T13:40:35.714Z,1.00
2022-09-17T13:43:14.237Z,1.00
2022-09-17T13:46:00.208Z,1.00
2022-09-17T13:48:32.622Z,1.00
2022-09-17T13:51:31.281Z,1.00
2022-09-17T13:54:10.295Z,1.00
2022-09-17T13:56:43.056Z,1.00
2022-09-17T13:59:17.449Z,1.00
2022-09-17T14:02:24.478Z,1.00
2022-09-17T14:05:19.614Z,3.10
2022-09-17T14:07:51.074Z,7.30
2022-09-17T14:10:17.772Z,10.50
2022-09-17T14:12:54.727Z,11.00
2022-09-17T14:15:43.242Z,13.30
2022-09-17T14:18:30.390Z,17.90
2022-09-17T14:21:09.354Z,15.60
2022-09-17T14:23:45.381Z,14.70
2022-09-17T14:26:27.768Z,8.80
2022-09-17T14:29:04.536Z,8.80
2022-09-17T14:31:37.562Z,9.60
2022-09-17T14:34:08.787Z,11.80
2022-09-17T14:36:38.754Z,15.80
2022-09-17T14:39:13.142Z,21.70
2022-09-17T14:41:44.360Z,24.90
2022-09-17T14:44:18.175Z,27.40
2022-09-17T14:47:07.011Z,29.00
2022-09-17T14:49:36.622Z,30.20
2022-09-17T14:52:26.331Z,31.30
2022-09-17T14:55:14.981Z,31.90
2022-09-17T14:57:41.835Z,32.20
2022-09-17T15:00:22.014Z,32.30
2022-09-17T15:02:59.323Z,33.10
2022-09-17T15:05:28.283Z,33.40
2022-09-17T15:08:27.934Z,33.20
2022-09-17T15:11:03.578Z,30.40
2022-09-17T15:13:48.776Z,27.90
2022-09-17T15:16:33.339Z,28.80
2022-09-17T15:19:06.214Z,30.00
2022-09-17T15:21:43.896Z,30.20
2022-09-17T15:24:16.978Z,30.90
2022-09-17T15:26:46.897Z,30.20
2022-09-17T15:29:14.991Z,31.30
2022-09-17T15:31:41.869Z,32.90
2022-09-17T15:34:14.672Z,33.40
2022-09-17T15:37:01.639Z,32.50
2022-09-17T15:39:39.218Z,30.60
2022-09-17T15:42:06.061Z,28.40
2022-09-17T15:44:33.012Z,27.50
2022-09-17T15:47:34.959Z,25.20
2022-09-17T15:50:26.193Z,26.80
2022-09-17T15:53:08.503Z,28.60
2022-09-17T15:55:43.814Z,30.70
2022-09-17T15:58:25.516Z,29.20
2022-09-17T16:01:18.522Z,29.20
2022-09-17T16:03:45.402Z,28.70
2022-09-17T16:06:25.312Z,29.10
2022-09-17T16:08:57.087Z,31.30
2022-09-17T16:11:28.949Z,31.80
2022-09-17T16:14:00.074Z,33.90
2022-09-17T16:16:38.254Z,31.30
2022-09-17T16:19:08.945Z,30.40
2022-09-17T16:21:35.970Z,33.00
2022-09-17T16:24:05.984Z,33.60
2022-09-17T16:26:35.268Z,34.90
2022-09-17T16:29:08.435Z,36.40
2022-09-17T16:31:35.234Z,37.70
2022-09-17T16:34:02.200Z,38.50
2022-09-17T16:36:31.239Z,38.50
2022-09-17T16:38:58.849Z,39.40
2022-09-17T16:41:25.597Z,39.80
2022-09-17T16:43:52.375Z,40.40
2022-09-17T16:46:19.294Z,40.70
2022-09-17T16:48:53.025Z,41.00
2022-09-17T16:51:20.007Z,41.50
2022-09-17T16:53:50.120Z,41.60
2022-09-17T16:56:17.064Z,42.00
2022-09-17T16:58:48.878Z,42.30
2022-09-17T17:01:16.384Z,42.60
2022-09-17T17:03:49.048Z,42.50
2022-09-17T17:06:19.808Z,42.60
2022-09-17T17:08:47.372Z,42.90
2022-09-17T17:11:16.933Z,42.90
2022-09-17T17:13:44.364Z,43.10
2022-09-17T17:16:13.544Z,43.40
2022-09-17T17:18:45.986Z,43.40
2022-09-17T17:21:14.217Z,43.40
2022-09-17T17:23:43.460Z,43.50
2022-09-17T17:26:10.331Z,44.10
2022-09-17T17:28:37.851Z,43.80
2022-09-17T17:31:05.613Z,44.00
2022-09-17T17:33:32.756Z,44.10
2022-09-17T17:36:04.132Z,44.30
2022-09-17T17:38:34.469Z,44.50
2022-09-17T17:41:07.823Z,44.80
2022-09-17T17:43:35.579Z,44.90
2022-09-17T17:46:07.911Z,45.70
2022-09-17T17:48:37.966Z,45.40
2022-09-17T17:51:10.028Z,45.70
2022-09-17T17:53:42.316Z,46.00
2022-09-17T17:56:10.414Z,46.20
2022-09-17T17:58:38.077Z,46.40
2022-09-17T18:01:26.004Z,46.90
2022-09-17T18:04:00.815Z,47.50
2022-09-17T18:06:28.900Z,48.00
2022-09-17T18:08:55.730Z,48.80
2022-09-17T18:11:24.970Z,50.10
2022-09-17T18:13:53.802Z,51.10
2022-09-17T18:16:21.660Z,51.90
2022-09-17T18:18:48.910Z,52.10
2022-09-17T18:21:18.566Z,53.00
2022-09-17T18:23:48.044Z,53.30
2022-09-17T18:26:22.775Z,53.70
2022-09-17T18:28:50.063Z,54.50
2022-09-17T18:31:31.134Z,55.00
2022-09-17T18:34:10.270Z,55.50
2022-09-17T18:36:38.918Z,55.70
2022-09-17T18:39:52.961Z,55.90
2022-09-17T18:41:58.462Z,56.60
2022-09-17T18:44:27.915Z,57.10
2022-09-17T18:46:55.029Z,58.00
2022-09-17T18:49:22.007Z,58.90
2022-09-17T18:51:48.885Z,59.60
2022-09-17T18:54:15.685Z,60.80
2022-09-17T18:56:44.672Z,61.00
2022-09-17T18:59:11.625Z,61.50
2022-09-17T19:01:39.153Z,62.30
2022-09-17T19:04:07.738Z,62.30
2022-09-17T19:06:37.146Z,62.40
2022-09-17T19:09:05.638Z,62.70
2022-09-17T19:11:39.009Z,63.30
2022-09-17T19:14:05.780Z,63.40
2022-09-17T19:16:32.723Z,63.40
2022-09-17T19:18:59.574Z,63.00
2022-09-17T19:21:26.514Z,62.90
2022-09-17T19:23:54.175Z,63.00
2022-09-17T19:26:23.159Z,63.10
2022-09-17T19:28:58.353Z,63.50
2022-09-17T19:31:26.090Z,63.40
2022-09-17T19:33:58.531Z,63.50
2022-09-17T19:36:25.530Z,64.00
2022-09-17T19:38:54.857Z,64.20
2022-09-17T19:41:23.351Z,64.40
2022-09-17T19:43:52.293Z,64.40
2022-09-17T19:46:23.447Z,64.50
2022-09-17T19:48:55.022Z,64.60
2022-09-17T19:51:23.831Z,64.50
2022-09-17T19:53:51.448Z,64.50
2022-09-17T19:56:23.157Z,64.60
2022-09-17T19:58:50.487Z,65.00
2022-09-17T20:01:20.009Z,65.10
2022-09-17T20:03:47.277Z,65.20
2022-09-17T20:06:16.896Z,65.40
2022-09-17T20:08:48.252Z,65.70
2022-09-17T20:11:16.330Z,66.30
2022-09-17T20:13:43.381Z,66.30
2022-09-17T20:16:14.665Z,66.50
2022-09-17T20:18:44.297Z,66.80
2022-09-17T20:21:20.703Z,67.00
2022-09-17T20:23:52.021Z,67.20
2022-09-17T20:26:20.930Z,67.50
2022-09-17T20:28:51.654Z,67.60
2022-09-17T20:31:24.128Z,68.00
2022-09-17T20:34:00.893Z,67.70
2022-09-17T20:36:36.006Z,67.80
2022-09-17T20:39:22.533Z,68.30
2022-09-17T20:41:52.850Z,68.00
2022-09-17T20:44:20.791Z,68.30
2022-09-17T20:46:50.237Z,68.30
2022-09-17T20:49:17.030Z,68.20
2022-09-17T20:51:43.910Z,68.20
2022-09-17T20:54:10.895Z,68.40
2022-09-17T20:56:37.663Z,68.40
2022-09-17T20:59:14.374Z,68.60
2022-09-17T21:01:44.726Z,68.80
2022-09-17T21:04:18.862Z,68.50
2022-09-17T21:06:48.856Z,68.90
2022-09-17T21:09:18.254Z,69.20
2022-09-17T21:11:46.746Z,69.20
2022-09-17T21:14:17.385Z,70.10
2022-09-17T21:16:46.821Z,69.60
2022-09-17T21:19:16.109Z,69.80
2022-09-17T21:21:43.168Z,69.60
2022-09-17T21:24:10.336Z,69.60
2022-09-17T21:26:37.863Z,69.90
2022-09-17T21:29:04.951Z,70.50
2022-09-17T21:31:36.810Z,70.40
2022-09-17T21:34:10.169Z,70.50
2022-09-17T21:36:38.427Z,70.60
2022-09-17T21:39:07.966Z,71.30
2022-09-17T21:41:38.638Z,72.60
2022-09-17T21:44:08.669Z,73.30
2022-09-17T21:46:38.128Z,73.50
2022-09-17T21:49:05.808Z,73.40
2022-09-17T21:51:39.818Z,73.50
2022-09-17T21:54:09.163Z,73.10
2022-09-17T21:56:37.068Z,72.90
2022-09-17T21:59:09.758Z,72.70
2022-09-17T22:01:42.149Z,72.50
2022-09-17T22:04:11.172Z,72.30
2022-09-17T22:06:38.199Z,72.00
2022-09-17T22:09:12.588Z,72.10
2022-09-17T22:11:41.680Z,72.00
2022-09-17T22:14:14.699Z,72.00
2022-09-17T22:16:43.927Z,72.10
2022-09-17T22:19:13.622Z,72.60
2022-09-17T22:21:44.664Z,72.80
2022-09-17T22:24:12.138Z,73.10
2022-09-17T22:26:43.278Z,73.30
2022-09-17T22:29:15.541Z,73.30
2022-09-17T22:31:48.435Z,73.40
2022-09-17T22:34:21.314Z,73.50
2022-09-17T22:36:50.731Z,73.40
2022-09-17T22:39:20.901Z,73.50
2022-09-17T22:41:48.433Z,73.10
2022-09-17T22:44:19.309Z,73.40
2022-09-17T22:46:49.001Z,73.70
2022-09-17T22:49:16.481Z,73.70
2022-09-17T22:51:44.855Z,73.70
2022-09-17T22:54:18.837Z,73.80
2022-09-17T22:56:47.201Z,73.80
2022-09-17T22:59:14.571Z,73.80
2022-09-17T23:01:41.977Z,73.90
2022-09-17T23:04:09.421Z,73.80
2022-09-17T23:06:38.748Z,73.70
2022-09-17T23:09:06.292Z,73.90
2022-09-17T23:11:37.979Z,73.90
2022-09-17T23:14:09.149Z,74.50
2022-09-17T23:16:39.693Z,74.50
2022-09-17T23:19:06.642Z,74.60
2022-09-17T23:21:36.058Z,74.50
2022-09-17T23:24:03.654Z,74.50
2022-09-17T23:26:30.887Z,74.30
2022-09-17T23:29:02.454Z,74.30
2022-09-17T23:31:34.766Z,74.40
2022-09-17T23:34:06.080Z,74.70
2022-09-17T23:36:40.352Z,74.80
2022-09-17T23:39:09.172Z,75.00
2022-09-17T23:41:45.603Z,75.00
2022-09-17T23:44:15.583Z,74.90
2022-09-17T23:46:44.138Z,75.10
2022-09-17T23:49:12.381Z,75.30
2022-09-17T23:51:39.340Z,75.80
2022-09-17T23:54:07.185Z,76.80
2022-09-17T23:56:34.976Z,77.60
2022-09-17T23:59:02.415Z,78.40
